createdAt,value
2019-03-24T00:01:41.522Z,61.45
2019-03-24T00:04:08.757Z,57.98
2019-03-24T00:06:37.897Z,69.20
2019-03-24T00:09:06.735Z,72.10
2019-03-24T00:11:35.707Z,67.70
2019-03-24T00:14:03.480Z,63.83
2019-03-24T00:16:31.621Z,72.40
2019-03-24T00:18:59.339Z,60.45
2019-03-24T00:21:28.005Z,66.50
2019-03-24T00:23:56.039Z,69.12
2019-03-24T00:26:24.051Z,66.85
2019-03-24T00:28:52.183Z,62.93
2019-03-24T00:31:20.620Z,70.75
2019-03-24T00:33:49.548Z,65.97
2019-03-24T00:36:17.953Z,68.87
2019-03-24T00:38:46.008Z,60.80
2019-03-24T00:41:14.120Z,65.40
2019-03-24T00:43:42.455Z,59.27
2019-03-24T00:46:11.404Z,68.42
2019-03-24T00:48:40.037Z,67.55
2019-03-24T00:51:08.336Z,59.15
2019-03-24T00:53:36.484Z,61.18
2019-03-24T00:56:04.589Z,59.38
2019-03-24T00:58:32.316Z,65.35
2019-03-24T01:01:00.325Z,63.25
2019-03-24T01:03:30.940Z,62.58
2019-03-24T01:06:01.702Z,64.75
2019-03-24T01:08:29.443Z,66.40
2019-03-24T01:10:57.516Z,70.85
2019-03-24T01:13:25.999Z,65.87
2019-03-24T01:15:54.716Z,70.42
2019-03-24T01:18:23.336Z,61.98
2019-03-24T01:20:51.126Z,65.75
2019-03-24T01:23:19.267Z,63.23
2019-03-24T01:25:47.369Z,68.83
2019-03-24T01:28:17.540Z,67.50
2019-03-24T01:30:45.490Z,68.83
2019-03-24T01:33:13.518Z,66.37
2019-03-24T01:35:42.363Z,61.90
2019-03-24T01:38:10.109Z,68.85
2019-03-24T01:40:37.851Z,68.40
2019-03-24T01:43:06.018Z,63.30
2019-03-24T01:45:33.763Z,68.60
2019-03-24T01:48:01.483Z,67.15
2019-03-24T01:50:29.527Z,77.90
2019-03-24T01:52:58.019Z,68.30
2019-03-24T01:55:27.767Z,67.17
2019-03-24T01:57:56.184Z,69.03
2019-03-24T02:00:26.820Z,67.20
2019-03-24T02:02:55.884Z,72.62
2019-03-24T02:05:24.211Z,64.27
2019-03-24T02:07:52.232Z,74.32
2019-03-24T02:10:20.431Z,66.77
2019-03-24T02:12:50.275Z,65.70
2019-03-24T02:15:18.115Z,68.60
2019-03-24T02:17:45.976Z,75.80
2019-03-24T02:20:28.321Z,66.00
2019-03-24T02:22:57.207Z,67.35
2019-03-24T02:25:25.657Z,68.87
2019-03-24T02:27:54.516Z,68.40
2019-03-24T02:30:23.040Z,73.70
2019-03-24T02:32:51.038Z,69.67
2019-03-24T02:35:19.180Z,69.60
2019-03-24T02:37:47.374Z,75.12
2019-03-24T02:40:17.359Z,68.80
2019-03-24T02:42:45.908Z,72.82
2019-03-24T02:45:14.007Z,75.03
2019-03-24T02:47:42.406Z,76.97
2019-03-24T02:50:10.449Z,70.17
2019-03-24T02:52:41.976Z,73.07
2019-03-24T02:55:11.814Z,72.62
2019-03-24T02:57:42.657Z,69.05
2019-03-24T03:02:38.271Z,72.35
2019-03-24T03:05:07.671Z,67.62
2019-03-24T03:07:36.796Z,65.67
2019-03-24T03:10:07.505Z,67.58
2019-03-24T03:15:02.611Z,60.38
2019-03-24T03:17:30.898Z,63.10
2019-03-24T03:19:59.165Z,61.63
2019-03-24T03:22:27.561Z,67.05
2019-03-24T03:24:55.538Z,64.80
2019-03-24T03:27:24.187Z,67.67
2019-03-24T03:29:52.857Z,70.83
2019-03-24T03:32:23.294Z,69.58
2019-03-24T03:34:51.702Z,73.25
2019-03-24T03:37:19.805Z,68.78
2019-03-24T03:39:47.795Z,76.05
2019-03-24T03:42:17.172Z,67.05
2019-03-24T03:44:45.609Z,75.55
2019-03-24T03:47:13.695Z,69.40
2019-03-24T03:49:41.437Z,65.57
2019-03-24T03:52:09.367Z,65.10
2019-03-24T03:54:37.284Z,63.95
2019-03-24T03:57:06.369Z,61.70
2019-03-24T03:59:36.113Z,59.88
2019-03-24T04:02:04.188Z,59.73
2019-03-24T04:04:32.365Z,60.80
2019-03-24T04:07:00.679Z,61.95
2019-03-24T04:09:29.189Z,72.67
2019-03-24T04:11:57.309Z,70.25
2019-03-24T04:14:25.758Z,72.27
2019-03-24T04:17:06.034Z,76.75
2019-03-24T04:19:24.545Z,68.87
2019-03-24T04:21:54.155Z,70.57
2019-03-24T04:24:22.230Z,67.40
2019-03-24T04:26:50.939Z,71.80
2019-03-24T04:29:19.274Z,79.17
2019-03-24T04:31:48.177Z,78.67
2019-03-24T04:34:16.011Z,78.83
2019-03-24T04:36:44.157Z,80.03
2019-03-24T04:39:12.073Z,79.27
2019-03-24T04:41:41.015Z,82.15
2019-03-24T04:44:10.053Z,74.30
2019-03-24T04:46:37.794Z,80.95
2019-03-24T04:49:05.826Z,76.87
2019-03-24T04:51:33.863Z,79.22
2019-03-24T04:54:02.279Z,83.67
2019-03-24T04:56:31.265Z,78.02
2019-03-24T04:58:59.956Z,81.57
2019-03-24T05:01:27.665Z,74.10
2019-03-24T05:03:56.035Z,80.35
2019-03-24T05:06:24.136Z,77.08
2019-03-24T05:08:53.541Z,78.97
2019-03-24T05:11:21.721Z,78.02
2019-03-24T05:13:50.427Z,70.72
2019-03-24T05:16:19.146Z,79.75
2019-03-24T05:18:46.907Z,70.40
2019-03-24T05:21:15.028Z,71.25
2019-03-24T05:23:43.231Z,71.12
2019-03-24T05:26:11.879Z,68.97
2019-03-24T05:28:39.660Z,68.25
2019-03-24T05:31:07.723Z,70.97
2019-03-24T05:33:35.518Z,67.42
2019-03-24T05:36:03.546Z,63.58
2019-03-24T05:38:31.958Z,69.45
2019-03-24T05:40:59.853Z,70.35
2019-03-24T05:43:28.311Z,68.50
2019-03-24T05:45:56.297Z,62.45
2019-03-24T05:48:25.250Z,60.92
2019-03-24T05:50:53.414Z,66.97
2019-03-24T05:53:22.532Z,71.42
2019-03-24T05:55:50.315Z,73.33
2019-03-24T05:58:18.740Z,70.30
2019-03-24T06:00:46.768Z,69.35
2019-03-24T06:03:15.607Z,64.37
2019-03-24T06:05:45.885Z,65.47
2019-03-24T06:08:13.943Z,64.80
2019-03-24T06:10:43.140Z,69.07
2019-03-24T06:13:12.943Z,65.72
2019-03-24T06:15:40.985Z,63.47
2019-03-24T06:18:09.095Z,67.85
2019-03-24T06:20:37.000Z,63.40
2019-03-24T06:23:05.573Z,63.45
2019-03-24T06:25:35.030Z,66.87
2019-03-24T06:28:04.152Z,68.70
2019-03-24T06:30:32.980Z,67.12
2019-03-24T06:33:00.751Z,70.47
2019-03-24T06:35:29.379Z,72.37
2019-03-24T06:37:57.735Z,71.42
2019-03-24T06:40:26.079Z,64.87
2019-03-24T06:42:55.496Z,64.55
2019-03-24T06:45:28.534Z,73.12
2019-03-24T06:47:58.110Z,64.90
2019-03-24T06:50:26.613Z,70.55
2019-03-24T06:52:54.493Z,65.90
2019-03-24T06:55:22.506Z,65.25
2019-03-24T06:57:50.305Z,66.72
2019-03-24T07:00:18.347Z,67.32
2019-03-24T07:02:46.580Z,64.45
2019-03-24T07:05:16.602Z,65.85
2019-03-24T07:07:45.504Z,63.02
2019-03-24T07:10:13.501Z,62.88
2019-03-24T07:12:41.864Z,67.03
2019-03-24T07:15:10.477Z,65.40
2019-03-24T07:17:38.267Z,64.60
2019-03-24T07:20:07.481Z,65.90
2019-03-24T07:22:35.521Z,64.30
2019-03-24T07:25:07.680Z,64.17
2019-03-24T07:27:35.870Z,69.15
2019-03-24T07:30:04.808Z,66.17
2019-03-24T07:32:33.699Z,65.08
2019-03-24T07:35:02.047Z,65.45
2019-03-24T07:37:30.993Z,64.90
2019-03-24T07:39:58.932Z,68.40
2019-03-24T07:42:28.948Z,65.90
2019-03-24T07:44:56.938Z,66.35
2019-03-24T07:47:24.937Z,66.57
2019-03-24T07:49:52.869Z,66.92
2019-03-24T07:52:21.826Z,68.37
2019-03-24T07:54:50.269Z,70.80
2019-03-24T07:57:18.142Z,65.83
2019-03-24T07:59:46.584Z,65.47
2019-03-24T08:02:14.607Z,61.60
2019-03-24T08:04:45.174Z,70.00
2019-03-24T08:07:13.293Z,64.32
2019-03-24T08:09:41.017Z,66.87
2019-03-24T08:12:12.247Z,64.15
2019-03-24T08:14:41.190Z,71.60
2019-03-24T08:17:09.648Z,69.47
2019-03-24T08:19:37.951Z,64.07
2019-03-24T08:22:06.550Z,63.68
2019-03-24T08:24:34.722Z,67.85
2019-03-24T08:27:02.557Z,63.73
2019-03-24T08:29:31.070Z,67.22
2019-03-24T08:31:59.893Z,71.55
2019-03-24T08:34:28.179Z,66.67
2019-03-24T08:36:56.077Z,64.80
2019-03-24T08:39:24.519Z,67.03
2019-03-24T08:41:52.707Z,73.10
2019-03-24T08:44:21.323Z,68.45
2019-03-24T08:46:49.892Z,73.83
2019-03-24T08:49:21.130Z,71.37
2019-03-24T08:51:51.487Z,73.50
2019-03-24T08:54:21.260Z,60.65
2019-03-24T08:56:51.483Z,61.75
2019-03-24T08:59:19.544Z,67.27
2019-03-24T09:01:48.573Z,71.60
2019-03-24T09:04:17.021Z,67.97
2019-03-24T09:06:45.219Z,63.90
2019-03-24T09:09:13.301Z,68.00
2019-03-24T09:11:41.393Z,61.90
2019-03-24T09:14:09.690Z,66.75
2019-03-24T09:16:37.742Z,65.08
2019-03-24T09:19:05.651Z,65.78
2019-03-24T09:21:36.325Z,62.88
2019-03-24T09:26:31.894Z,66.40
2019-03-24T09:29:00.026Z,61.35
2019-03-24T09:31:28.672Z,65.50
2019-03-24T09:33:56.820Z,61.55
2019-03-24T09:36:25.812Z,64.17
2019-03-24T09:38:54.625Z,67.78
2019-03-24T09:41:23.098Z,64.20
2019-03-24T09:43:51.347Z,60.90
2019-03-24T09:46:19.447Z,71.45
2019-03-24T09:48:48.133Z,63.28
2019-03-24T09:51:16.840Z,66.47
2019-03-24T09:53:47.043Z,61.15
2019-03-24T09:56:16.456Z,65.90
2019-03-24T09:58:44.360Z,59.08
2019-03-24T10:01:12.478Z,60.67
2019-03-24T10:03:40.639Z,62.73
2019-03-24T10:06:08.404Z,66.67
2019-03-24T10:08:46.811Z,64.47
2019-03-24T10:11:06.744Z,60.83
2019-03-24T10:13:43.253Z,65.22
2019-03-24T10:16:11.696Z,61.28
2019-03-24T10:18:40.350Z,65.22
2019-03-24T10:21:10.179Z,63.55
2019-03-24T10:23:38.464Z,62.90
2019-03-24T10:26:07.583Z,69.05
2019-03-24T10:28:36.345Z,64.00
2019-03-24T10:31:04.812Z,64.85
2019-03-24T10:33:33.332Z,65.00
2019-03-24T10:36:01.349Z,59.95
2019-03-24T10:38:29.853Z,59.75
2019-03-24T10:40:58.198Z,62.67
2019-03-24T10:43:27.217Z,63.70
2019-03-24T10:45:55.978Z,64.72
2019-03-24T10:48:33.386Z,65.62
2019-03-24T10:50:54.789Z,60.35
2019-03-24T10:53:23.630Z,63.83
2019-03-24T10:55:51.552Z,67.45
2019-03-24T10:58:19.647Z,59.35
2019-03-24T11:00:48.048Z,63.78
2019-03-24T11:03:16.123Z,63.48
2019-03-24T11:05:43.976Z,59.23
2019-03-24T11:08:12.937Z,67.10
2019-03-24T11:10:40.760Z,62.83
2019-03-24T11:13:08.789Z,65.32
2019-03-24T11:15:36.889Z,61.90
2019-03-24T11:18:06.072Z,63.08
2019-03-24T11:20:35.234Z,61.68
2019-03-24T11:23:03.134Z,61.48
2019-03-24T11:25:31.883Z,66.57
2019-03-24T11:28:00.008Z,64.53
2019-03-24T11:30:30.332Z,62.25
2019-03-24T11:32:59.547Z,59.45
2019-03-24T11:35:27.675Z,62.90
2019-03-24T11:37:56.172Z,65.00
2019-03-24T11:40:24.394Z,62.35
2019-03-24T11:42:55.291Z,65.62
2019-03-24T11:45:24.106Z,64.03
2019-03-24T11:47:52.146Z,62.03
2019-03-24T11:50:20.622Z,61.85
2019-03-24T11:52:48.688Z,60.67
2019-03-24T11:55:17.271Z,54.75
2019-03-24T11:57:45.447Z,60.12
2019-03-24T12:00:13.464Z,62.10
2019-03-24T12:02:41.442Z,60.58
2019-03-24T12:05:09.683Z,60.55
2019-03-24T12:07:37.465Z,66.45
2019-03-24T12:10:06.756Z,56.68
2019-03-24T12:12:35.113Z,55.55
2019-03-24T12:15:05.590Z,57.30
2019-03-24T12:17:34.140Z,59.88
2019-03-24T12:20:02.451Z,62.67
2019-03-24T12:22:30.567Z,57.80
2019-03-24T12:24:58.523Z,54.18
2019-03-24T12:27:26.871Z,58.87
2019-03-24T12:29:55.004Z,56.18
2019-03-24T12:32:23.210Z,59.73
2019-03-24T12:34:51.408Z,57.03
2019-03-24T12:37:19.432Z,53.17
2019-03-24T12:39:47.877Z,59.60
2019-03-24T12:42:16.608Z,57.27
2019-03-24T12:44:45.567Z,54.33
2019-03-24T12:47:13.898Z,52.90
2019-03-24T12:49:51.499Z,53.40
2019-03-24T12:52:20.054Z,52.27
2019-03-24T12:54:48.408Z,53.35
2019-03-24T12:57:18.390Z,58.83
2019-03-24T12:59:47.177Z,57.58
2019-03-24T13:02:15.217Z,62.93
2019-03-24T13:04:42.984Z,57.95
2019-03-24T13:07:11.100Z,56.45
2019-03-24T13:09:39.167Z,56.10
2019-03-24T13:12:07.616Z,53.00
2019-03-24T13:14:35.834Z,50.75
2019-03-24T13:17:04.314Z,59.00
2019-03-24T13:19:35.882Z,58.78
2019-03-24T13:22:02.884Z,59.45
2019-03-24T13:24:30.928Z,58.40
2019-03-24T13:26:59.084Z,54.35
2019-03-24T13:29:27.287Z,52.98
2019-03-24T13:31:57.395Z,58.08
2019-03-24T13:34:28.959Z,54.50
2019-03-24T13:36:57.060Z,57.10
2019-03-24T13:39:24.824Z,56.45
2019-03-24T13:41:53.378Z,54.00
2019-03-24T13:44:21.839Z,58.02
2019-03-24T13:46:49.941Z,54.67
2019-03-24T13:49:18.004Z,58.52
2019-03-24T13:51:46.217Z,54.35
2019-03-24T13:54:15.334Z,53.23
2019-03-24T13:56:43.375Z,56.00
2019-03-24T13:59:11.103Z,55.75
2019-03-24T14:01:40.115Z,53.15
2019-03-24T14:04:08.808Z,52.80
2019-03-24T14:06:37.444Z,51.75
2019-03-24T14:09:08.090Z,39.20
2019-03-24T14:14:07.860Z,54.98
2019-03-24T14:16:37.284Z,56.98
2019-03-24T14:19:05.288Z,52.10
2019-03-24T14:21:33.376Z,57.38
2019-03-24T14:24:01.323Z,57.43
2019-03-24T14:26:29.104Z,52.48
2019-03-24T14:28:57.565Z,56.25
2019-03-24T14:31:26.734Z,52.23
2019-03-24T14:33:54.796Z,54.90
2019-03-24T14:36:23.233Z,54.98
2019-03-24T14:38:51.388Z,58.10
2019-03-24T14:41:20.117Z,56.15
2019-03-24T14:43:48.255Z,55.43
2019-03-24T14:46:16.374Z,53.33
2019-03-24T14:48:45.199Z,57.27
2019-03-24T14:51:14.155Z,53.83
2019-03-24T14:53:42.168Z,52.55
2019-03-24T14:56:12.509Z,50.92
2019-03-24T14:58:40.830Z,57.62
2019-03-24T15:01:08.602Z,54.83
2019-03-24T15:03:37.946Z,50.30
2019-03-24T15:06:06.540Z,52.55
2019-03-24T15:08:35.917Z,52.15
2019-03-24T15:11:05.364Z,56.00
2019-03-24T15:13:34.564Z,51.45
2019-03-24T15:16:04.523Z,54.70
2019-03-24T15:18:32.715Z,54.50
2019-03-24T15:21:05.499Z,53.42
2019-03-24T15:23:31.354Z,53.73
2019-03-24T15:26:11.998Z,57.48
2019-03-24T15:31:07.631Z,53.17
2019-03-24T15:33:35.400Z,49.53
2019-03-24T15:36:03.775Z,51.55
2019-03-24T15:38:32.532Z,52.13
2019-03-24T15:41:00.744Z,52.00
2019-03-24T15:43:28.802Z,48.75
2019-03-24T15:45:57.522Z,54.25
2019-03-24T15:48:25.546Z,53.40
2019-03-24T15:50:54.076Z,55.67
2019-03-24T15:53:22.206Z,51.00
2019-03-24T15:55:51.354Z,55.85
2019-03-24T15:58:19.370Z,50.35
2019-03-24T16:00:48.357Z,48.87
2019-03-24T16:03:16.843Z,52.33
2019-03-24T16:05:44.569Z,52.45
2019-03-24T16:08:12.915Z,53.23
2019-03-24T16:10:42.146Z,53.65
2019-03-24T16:13:11.700Z,52.60
2019-03-24T16:15:40.673Z,54.25
2019-03-24T16:18:09.426Z,54.90
2019-03-24T16:20:38.127Z,55.25
2019-03-24T16:23:07.284Z,52.15
2019-03-24T16:25:35.317Z,51.37
2019-03-24T16:28:06.426Z,56.70
2019-03-24T16:30:35.183Z,50.33
2019-03-24T16:33:03.003Z,51.08
2019-03-24T16:35:31.197Z,55.43
2019-03-24T16:37:59.293Z,52.83
2019-03-24T16:40:27.648Z,56.80
2019-03-24T16:42:56.612Z,53.87
2019-03-24T16:45:24.690Z,51.50
2019-03-24T16:47:52.617Z,53.83
2019-03-24T16:50:20.666Z,52.45
2019-03-24T16:52:49.149Z,55.38
2019-03-24T16:55:17.790Z,56.08
2019-03-24T16:57:46.666Z,51.45
2019-03-24T17:00:14.711Z,55.75
2019-03-24T17:02:42.541Z,52.38
2019-03-24T17:05:10.564Z,50.05
2019-03-24T17:07:38.585Z,51.70
2019-03-24T17:10:08.305Z,55.90
2019-03-24T17:12:36.575Z,61.50
2019-03-24T17:15:05.017Z,55.38
2019-03-24T17:17:33.896Z,60.92
2019-03-24T17:20:03.261Z,57.65
2019-03-24T17:22:31.781Z,54.70
2019-03-24T17:25:00.400Z,60.12
2019-03-24T17:27:28.691Z,60.17
2019-03-24T17:29:56.931Z,60.00
2019-03-24T17:32:25.154Z,54.08
2019-03-24T17:34:53.181Z,54.60
2019-03-24T17:37:21.720Z,57.62
2019-03-24T17:39:50.229Z,62.58
2019-03-24T17:42:17.995Z,55.48
2019-03-24T17:44:46.596Z,59.20
2019-03-24T17:47:16.348Z,59.83
2019-03-24T17:49:45.561Z,58.20
2019-03-24T17:52:13.793Z,65.37
2019-03-24T17:54:41.959Z,57.60
2019-03-24T17:57:10.198Z,66.62
2019-03-24T17:59:38.303Z,60.33
2019-03-24T18:02:14.158Z,64.62
2019-03-24T18:04:36.610Z,68.52
2019-03-24T18:07:06.425Z,54.98
2019-03-24T18:09:34.561Z,67.13
2019-03-24T18:12:05.019Z,68.33
2019-03-24T18:14:33.483Z,73.20
2019-03-24T18:17:01.370Z,73.05
2019-03-24T18:19:29.708Z,59.08
2019-03-24T18:21:59.049Z,70.65
2019-03-24T18:24:27.443Z,57.93
2019-03-24T18:26:56.390Z,55.17
2019-03-24T18:29:27.784Z,68.92
2019-03-24T18:31:55.536Z,79.42
2019-03-24T18:34:24.462Z,44.27
2019-03-24T18:36:52.659Z,70.03
2019-03-24T18:39:21.430Z,82.97
2019-03-24T18:41:49.840Z,68.15
2019-03-24T18:44:19.185Z,79.03
2019-03-24T18:46:46.970Z,56.60
2019-03-24T18:49:15.503Z,72.85
2019-03-24T18:51:44.397Z,65.65
2019-03-24T18:54:12.569Z,83.15
2019-03-24T18:56:40.797Z,70.65
2019-03-24T18:59:09.148Z,72.50
2019-03-24T19:01:37.108Z,73.67
2019-03-24T19:04:05.170Z,73.07
2019-03-24T19:06:35.196Z,71.53
2019-03-24T19:09:05.535Z,76.92
2019-03-24T19:11:34.252Z,80.07
2019-03-24T19:14:06.814Z,63.78
2019-03-24T19:16:35.603Z,66.17
2019-03-24T19:19:04.235Z,80.35
2019-03-24T19:21:32.303Z,71.53
2019-03-24T19:24:00.803Z,69.10
2019-03-24T19:26:29.254Z,75.37
2019-03-24T19:28:59.091Z,76.62
2019-03-24T19:31:27.906Z,72.07
2019-03-24T19:33:56.050Z,77.20
2019-03-24T19:36:24.738Z,56.58
2019-03-24T19:38:54.560Z,66.47
2019-03-24T19:41:22.748Z,80.00
2019-03-24T19:43:51.187Z,72.55
2019-03-24T19:46:21.103Z,82.15
2019-03-24T19:48:49.287Z,74.42
2019-03-24T19:51:17.471Z,79.47
2019-03-24T19:53:45.698Z,84.95
2019-03-24T19:56:14.216Z,74.50
2019-03-24T19:58:42.558Z,81.15
2019-03-24T20:01:11.388Z,80.83
2019-03-24T20:03:40.367Z,83.85
2019-03-24T20:06:08.941Z,87.02
2019-03-24T20:08:37.069Z,85.20
2019-03-24T20:11:05.079Z,85.00
2019-03-24T20:13:32.967Z,84.83
2019-03-24T20:16:01.974Z,79.87
2019-03-24T20:18:30.730Z,89.67
2019-03-24T20:20:58.814Z,89.32
2019-03-24T20:23:27.273Z,86.35
2019-03-24T20:25:55.314Z,82.65
2019-03-24T20:28:24.409Z,89.55
2019-03-24T20:30:52.631Z,89.95
2019-03-24T20:33:20.856Z,92.47
2019-03-24T20:35:49.543Z,89.45
2019-03-24T20:38:17.628Z,87.12
2019-03-24T20:40:45.742Z,83.85
2019-03-24T20:43:15.563Z,91.87
2019-03-24T20:45:44.857Z,87.25
2019-03-24T20:48:14.185Z,79.95
2019-03-24T20:50:44.355Z,89.58
2019-03-24T20:53:18.320Z,95.20
2019-03-24T20:55:45.129Z,92.20
2019-03-24T20:58:14.789Z,89.05
2019-03-24T21:00:42.881Z,100.42
2019-03-24T21:03:10.957Z,87.45
2019-03-24T21:05:40.481Z,91.67
2019-03-24T21:08:09.952Z,91.92
2019-03-24T21:10:37.786Z,96.42
2019-03-24T21:13:06.540Z,95.30
2019-03-24T21:15:34.708Z,95.85
2019-03-24T21:18:04.228Z,94.22
2019-03-24T21:20:32.444Z,93.20
2019-03-24T21:23:00.431Z,98.05
2019-03-24T21:25:29.044Z,94.77
2019-03-24T21:27:58.203Z,90.15
2019-03-24T21:30:37.120Z,95.60
2019-03-24T21:33:05.431Z,102.00
2019-03-24T21:35:33.907Z,101.90
2019-03-24T21:38:05.092Z,102.40
2019-03-24T21:40:33.235Z,99.72
2019-03-24T21:43:01.295Z,114.00
2019-03-24T21:45:30.547Z,103.58
2019-03-24T21:47:58.813Z,110.85
2019-03-24T21:50:26.837Z,104.53
2019-03-24T21:52:55.261Z,111.75
2019-03-24T21:55:23.614Z,105.65
2019-03-24T21:57:57.362Z,114.37
2019-03-24T22:00:31.407Z,111.12
2019-03-24T22:02:59.455Z,110.70
2019-03-24T22:05:27.808Z,117.08
2019-03-24T22:07:55.811Z,119.28
2019-03-24T22:10:23.903Z,115.10
2019-03-24T22:12:52.979Z,116.65
2019-03-24T22:15:21.143Z,122.28
2019-03-24T22:17:49.536Z,112.08
2019-03-24T22:20:17.642Z,117.37
2019-03-24T22:22:47.106Z,117.75
2019-03-24T22:25:15.343Z,121.62
2019-03-24T22:27:44.218Z,108.37
2019-03-24T22:30:12.718Z,108.65
2019-03-24T22:32:40.897Z,117.45
2019-03-24T22:35:09.044Z,122.92
2019-03-24T22:37:37.471Z,111.32
2019-03-24T22:40:07.085Z,113.40
2019-03-24T22:42:34.801Z,114.25
2019-03-24T22:45:03.073Z,110.57
2019-03-24T22:47:31.012Z,108.67
2019-03-24T22:49:59.706Z,117.37
2019-03-24T22:52:27.456Z,118.42
2019-03-24T22:54:56.167Z,115.95
2019-03-24T22:57:25.211Z,114.20
2019-03-24T22:59:53.225Z,122.10
2019-03-24T23:02:22.339Z,120.53
2019-03-24T23:04:50.673Z,114.92
2019-03-24T23:07:19.120Z,120.08
2019-03-24T23:09:47.134Z,113.88
2019-03-24T23:12:15.630Z,120.75
2019-03-24T23:14:46.358Z,117.22
2019-03-24T23:17:17.520Z,124.72
2019-03-24T23:19:47.095Z,111.17
2019-03-24T23:22:15.411Z,116.65
2019-03-24T23:24:43.452Z,120.02
2019-03-24T23:27:12.384Z,112.77
2019-03-24T23:29:40.724Z,110.92
2019-03-24T23:32:10.933Z,123.78
2019-03-24T23:34:39.093Z,116.00
2019-03-24T23:37:07.384Z,122.58
2019-03-24T23:39:35.436Z,105.78
2019-03-24T23:42:03.843Z,116.97
2019-03-24T23:44:31.978Z,112.70
2019-03-24T23:47:00.011Z,116.30
2019-03-24T23:49:27.921Z,119.10
2019-03-24T23:51:56.558Z,120.50
2019-03-24T23:54:27.244Z,119.28
2019-03-24T23:56:54.213Z,121.40
2019-03-24T23:59:22.344Z,119.57
